createdAt,value
2018-12-19T00:01:49.286Z,98.30
2018-12-19T00:04:18.277Z,97.50
2018-12-19T00:06:47.265Z,97.80
2018-12-19T00:09:16.224Z,98.80
2018-12-19T00:11:49.053Z,99.50
2018-12-19T00:14:18.030Z,99.90
2018-12-19T00:16:47.032Z,99.90
2018-12-19T00:19:15.968Z,97.50
2018-12-19T00:21:45.024Z,96.40
2018-12-19T00:24:13.973Z,97.20
2018-12-19T00:26:42.899Z,95.20
2018-12-19T00:29:11.863Z,94.00
2018-12-19T00:31:40.791Z,94.10
2018-12-19T00:34:09.808Z,95.10
2018-12-19T00:36:38.785Z,94.70
2018-12-19T00:39:09.675Z,95.60
2018-12-19T00:41:38.820Z,95.00
2018-12-19T00:44:07.819Z,96.60
2018-12-19T00:46:38.715Z,95.80
2018-12-19T00:49:07.646Z,94.80
2018-12-19T00:51:36.696Z,96.70
2018-12-19T00:54:05.746Z,98.60
2018-12-19T00:56:34.787Z,99.10
2018-12-19T00:59:03.716Z,98.60
2018-12-19T01:01:32.786Z,99.40
2018-12-19T01:04:01.717Z,97.60
2018-12-19T01:06:30.821Z,96.80
2018-12-19T01:09:00.887Z,96.80
2018-12-19T01:11:29.797Z,97.90
2018-12-19T01:13:58.809Z,95.60
2018-12-19T01:16:27.835Z,96.00
2018-12-19T01:18:56.760Z,98.00
2018-12-19T01:21:29.477Z,98.20
2018-12-19T01:23:58.542Z,98.40
2018-12-19T01:26:27.522Z,99.20
2018-12-19T01:29:00.358Z,99.50
2018-12-19T01:31:29.345Z,99.60
2018-12-19T01:33:58.343Z,99.90
2018-12-19T01:36:28.255Z,99.90
2018-12-19T01:39:22.575Z,99.40
2018-12-19T01:41:50.868Z,96.70
2018-12-19T01:44:19.797Z,98.00
2018-12-19T01:47:00.978Z,96.50
2018-12-19T01:49:29.934Z,96.10
2018-12-19T01:51:58.965Z,96.80
2018-12-19T01:54:36.983Z,96.20
2018-12-19T01:57:05.960Z,94.70
2018-12-19T01:59:35.461Z,96.20
2018-12-19T02:02:04.559Z,97.00
2018-12-19T02:04:33.597Z,96.40
2018-12-19T02:07:02.603Z,94.10
2018-12-19T02:09:32.162Z,95.30
2018-12-19T02:12:07.152Z,95.10
2018-12-19T02:14:36.157Z,95.70
2018-12-19T02:17:05.144Z,94.70
2018-12-19T02:19:34.386Z,94.90
2018-12-19T02:22:19.211Z,93.30
2018-12-19T02:24:48.143Z,92.80
2018-12-19T02:27:17.229Z,94.40
2018-12-19T02:29:46.191Z,94.50
2018-12-19T02:32:15.171Z,94.00
2018-12-19T02:34:44.215Z,92.80
2018-12-19T02:37:13.164Z,93.20
2018-12-19T02:39:42.171Z,91.80
2018-12-19T02:42:11.181Z,93.50
2018-12-19T02:44:40.360Z,94.00
2018-12-19T02:47:09.340Z,92.10
2018-12-19T02:49:38.432Z,93.30
2018-12-19T02:52:07.428Z,94.00
2018-12-19T02:54:36.432Z,93.90
2018-12-19T02:57:05.411Z,94.20
2018-12-19T02:59:34.430Z,94.10
2018-12-19T03:02:03.672Z,94.80
2018-12-19T03:04:32.716Z,94.80
2018-12-19T03:07:01.719Z,94.10
2018-12-19T03:09:31.642Z,94.60
2018-12-19T03:12:00.688Z,95.30
2018-12-19T03:14:29.866Z,94.30
2018-12-19T03:16:58.874Z,93.20
2018-12-19T03:19:31.799Z,92.00
2018-12-19T03:22:00.759Z,93.20
2018-12-19T03:24:29.736Z,92.60
2018-12-19T03:26:58.680Z,93.50
2018-12-19T03:29:27.672Z,94.30
2018-12-19T03:31:56.607Z,94.60
2018-12-19T03:34:25.550Z,92.90
2018-12-19T03:36:54.513Z,93.90
2018-12-19T03:39:23.499Z,93.30
2018-12-19T03:41:52.532Z,93.70
2018-12-19T03:44:25.386Z,93.40
2018-12-19T03:46:54.389Z,93.80
2018-12-19T03:49:23.358Z,94.90
2018-12-19T03:51:53.526Z,95.50
2018-12-19T03:54:22.602Z,92.90
2018-12-19T03:56:52.069Z,94.70
2018-12-19T03:59:21.037Z,94.70
2018-12-19T04:01:50.091Z,93.70
2018-12-19T04:04:19.216Z,93.20
2018-12-19T04:06:48.145Z,93.50
2018-12-19T04:09:17.179Z,94.80
2018-12-19T04:11:46.214Z,95.00
2018-12-19T04:14:15.953Z,95.40
2018-12-19T04:16:44.930Z,95.70
2018-12-19T04:19:13.912Z,96.00
2018-12-19T04:21:42.923Z,94.10
2018-12-19T04:24:11.899Z,92.90
2018-12-19T04:26:40.899Z,93.90
2018-12-19T04:29:09.892Z,94.70
2018-12-19T04:31:47.716Z,94.40
2018-12-19T04:34:16.801Z,95.10
2018-12-19T04:36:45.802Z,94.80
2018-12-19T04:39:14.746Z,94.60
2018-12-19T04:41:43.674Z,93.20
2018-12-19T04:44:12.722Z,93.90
2018-12-19T04:46:41.663Z,93.30
2018-12-19T04:49:10.735Z,94.10
2018-12-19T04:51:46.402Z,92.70
2018-12-19T04:54:15.346Z,92.80
2018-12-19T04:56:44.357Z,93.40
2018-12-19T04:59:42.368Z,93.40
2018-12-19T05:02:11.424Z,93.20
2018-12-19T05:04:40.401Z,93.30
2018-12-19T05:07:09.326Z,93.90
2018-12-19T05:09:38.451Z,95.30
2018-12-19T05:12:07.460Z,94.30
2018-12-19T05:14:36.567Z,92.90
2018-12-19T05:20:10.674Z,91.80
2018-12-19T05:22:39.670Z,92.50
2018-12-19T05:25:15.222Z,92.20
2018-12-19T05:27:44.175Z,93.50
2018-12-19T05:30:13.173Z,93.60
2018-12-19T05:32:42.175Z,93.70
2018-12-19T05:35:11.145Z,91.70
2018-12-19T05:37:40.180Z,92.80
2018-12-19T05:40:18.971Z,93.60
2018-12-19T05:42:47.767Z,95.30
2018-12-19T05:45:16.785Z,95.90
2018-12-19T05:47:45.798Z,98.00
2018-12-19T05:55:30.499Z,99.80
2018-12-19T05:57:59.445Z,99.90
2018-12-19T06:00:28.427Z,99.90
2018-12-19T06:02:57.375Z,99.90
2018-12-19T06:05:26.356Z,99.90
2018-12-19T06:07:55.292Z,99.90
2018-12-19T06:10:26.321Z,99.90
2018-12-19T06:12:55.156Z,99.90
2018-12-19T06:15:24.165Z,99.90
2018-12-19T06:17:53.145Z,99.90
2018-12-19T06:20:22.098Z,99.90
2018-12-19T06:22:51.105Z,99.90
2018-12-19T06:25:20.062Z,99.90
2018-12-19T06:27:49.328Z,99.90
2018-12-19T06:30:18.806Z,99.90
2018-12-19T06:32:47.881Z,99.90
2018-12-19T06:35:16.818Z,99.90
2018-12-19T06:37:45.776Z,99.90
2018-12-19T06:40:14.788Z,99.90
2018-12-19T06:42:43.725Z,99.90
2018-12-19T06:45:12.791Z,99.90
2018-12-19T06:47:41.738Z,99.90
2018-12-19T06:50:10.786Z,99.90
2018-12-19T06:52:39.826Z,99.90
2018-12-19T06:55:08.870Z,99.90
2018-12-19T06:57:37.823Z,99.90
2018-12-19T07:00:08.081Z,99.90
2018-12-19T07:02:37.032Z,99.90
2018-12-19T07:05:06.046Z,99.90
2018-12-19T07:07:34.981Z,99.90
2018-12-19T07:10:05.429Z,99.90
2018-12-19T07:12:34.376Z,99.90
2018-12-19T07:15:03.466Z,99.90
2018-12-19T07:17:32.413Z,99.90
2018-12-19T07:20:01.378Z,99.90
2018-12-19T07:22:30.326Z,99.90
2018-12-19T07:24:59.369Z,99.90
2018-12-19T07:27:28.513Z,99.90
2018-12-19T07:29:57.840Z,99.90
2018-12-19T07:32:26.798Z,99.90
2018-12-19T07:34:56.725Z,99.90
2018-12-19T07:37:25.669Z,99.90
2018-12-19T07:39:54.663Z,99.90
2018-12-19T07:42:23.628Z,99.90
2018-12-19T07:44:52.585Z,99.90
2018-12-19T07:47:21.558Z,99.90
2018-12-19T07:49:50.494Z,99.90
2018-12-19T07:52:19.495Z,99.90
2018-12-19T07:54:48.458Z,99.90
2018-12-19T07:57:17.414Z,99.90
2018-12-19T07:59:46.361Z,99.90
2018-12-19T08:02:15.289Z,99.90
2018-12-19T08:04:44.582Z,99.90
2018-12-19T08:07:13.514Z,99.90
2018-12-19T08:09:42.471Z,99.90
2018-12-19T08:12:11.480Z,99.90
2018-12-19T08:14:40.429Z,99.90
2018-12-19T08:17:09.385Z,99.90
2018-12-19T08:19:38.321Z,99.90
2018-12-19T08:22:07.327Z,99.90
2018-12-19T08:24:36.367Z,99.90
2018-12-19T08:27:05.331Z,99.90
2018-12-19T08:29:34.310Z,99.90
2018-12-19T08:32:03.255Z,99.90
2018-12-19T08:34:32.214Z,99.90
2018-12-19T08:37:01.290Z,99.90
2018-12-19T08:39:30.578Z,99.90
2018-12-19T08:41:59.634Z,99.90
2018-12-19T08:44:28.564Z,99.90
2018-12-19T08:46:57.554Z,99.90
2018-12-19T08:49:26.499Z,99.90
2018-12-19T08:51:55.445Z,99.90
2018-12-19T08:54:24.565Z,99.90
2018-12-19T08:56:53.522Z,99.90
2018-12-19T08:59:22.538Z,99.90
2018-12-19T09:01:51.493Z,99.90
2018-12-19T09:04:25.818Z,99.90
2018-12-19T09:06:51.436Z,99.90
2018-12-19T09:09:20.506Z,99.90
2018-12-19T09:11:50.152Z,99.90
2018-12-19T09:14:19.236Z,99.90
2018-12-19T09:16:48.177Z,99.90
2018-12-19T09:19:17.196Z,99.90
2018-12-19T09:21:46.141Z,99.90
2018-12-19T09:24:15.093Z,99.90
2018-12-19T09:26:44.058Z,99.90
2018-12-19T09:29:13.010Z,99.90
2018-12-19T09:31:46.313Z,99.90
2018-12-19T09:34:15.611Z,99.90
2018-12-19T09:36:44.585Z,99.90
2018-12-19T09:39:13.528Z,99.90
2018-12-19T09:41:42.558Z,99.90
2018-12-19T09:44:11.511Z,99.90
2018-12-19T09:46:40.473Z,99.90
2018-12-19T09:49:12.625Z,99.90
2018-12-19T09:51:40.400Z,99.90
2018-12-19T09:54:09.377Z,99.90
2018-12-19T09:56:38.337Z,99.90
2018-12-19T09:59:07.354Z,99.90
2018-12-19T10:01:36.304Z,99.90
2018-12-19T10:04:05.348Z,99.90
2018-12-19T10:06:34.288Z,99.90
2018-12-19T10:09:05.221Z,99.90
2018-12-19T10:11:34.152Z,99.90
2018-12-19T10:14:03.105Z,99.90
2018-12-19T10:16:32.121Z,99.90
2018-12-19T10:19:01.141Z,99.90
2018-12-19T10:21:30.118Z,99.90
2018-12-19T10:23:59.081Z,99.90
2018-12-19T10:26:28.011Z,99.90
2018-12-19T10:28:56.959Z,99.90
2018-12-19T10:31:26.193Z,99.90
2018-12-19T10:33:55.140Z,99.90
2018-12-19T10:36:26.034Z,99.90
2018-12-19T10:38:55.128Z,99.90
2018-12-19T10:41:25.595Z,98.70
2018-12-19T10:43:54.730Z,97.20
2018-12-19T10:46:23.694Z,98.20
2018-12-19T10:48:52.630Z,94.90
2018-12-19T10:51:21.571Z,96.20
2018-12-19T10:53:50.535Z,97.30
2018-12-19T10:56:19.525Z,96.30
2018-12-19T10:58:48.434Z,96.50
2018-12-19T11:01:17.390Z,97.30
2018-12-19T11:03:46.370Z,95.90
2018-12-19T11:06:15.314Z,98.10
2018-12-19T11:08:44.258Z,97.30
2018-12-19T11:11:13.219Z,96.20
2018-12-19T11:13:42.164Z,97.00
2018-12-19T11:16:11.090Z,97.80
2018-12-19T11:18:40.101Z,95.10
2018-12-19T11:21:09.041Z,95.80
2018-12-19T11:23:37.980Z,96.10
2018-12-19T11:26:07.010Z,94.50
2018-12-19T11:28:35.972Z,95.80
2018-12-19T11:31:04.985Z,96.20
2018-12-19T11:33:33.951Z,96.50
2018-12-19T11:36:02.941Z,96.70
2018-12-19T11:38:31.880Z,97.20
2018-12-19T11:41:00.905Z,97.10
2018-12-19T11:43:29.898Z,96.90
2018-12-19T11:45:58.870Z,96.90
2018-12-19T11:48:27.887Z,97.20
2018-12-19T11:50:56.873Z,94.80
2018-12-19T11:53:25.809Z,94.40
2018-12-19T11:55:54.777Z,95.90
2018-12-19T11:58:23.757Z,96.30
2018-12-19T12:00:52.711Z,95.70
2018-12-19T12:03:21.691Z,96.70
2018-12-19T12:05:50.651Z,97.90
2018-12-19T12:08:19.600Z,99.70
2018-12-19T12:10:48.569Z,98.40
2018-12-19T12:13:17.494Z,98.20
2018-12-19T12:15:46.481Z,99.90
2018-12-19T12:18:15.464Z,97.80
2018-12-19T12:20:44.365Z,97.00
2018-12-19T12:23:13.332Z,96.20
2018-12-19T12:25:42.361Z,97.20
2018-12-19T12:28:11.441Z,96.90
2018-12-19T12:30:40.390Z,95.90
2018-12-19T12:33:09.333Z,96.30
2018-12-19T12:35:38.349Z,97.00
2018-12-19T12:38:07.380Z,97.50
2018-12-19T12:40:36.509Z,97.90
2018-12-19T12:43:05.485Z,97.60
2018-12-19T12:45:34.471Z,94.10
2018-12-19T12:48:03.775Z,94.80
2018-12-19T12:50:33.683Z,93.10
2018-12-19T12:53:02.749Z,93.30
2018-12-19T12:55:32.420Z,94.80
2018-12-19T12:58:01.479Z,95.60
2018-12-19T13:00:30.426Z,96.40
2018-12-19T13:02:59.380Z,96.80
2018-12-19T13:05:28.946Z,95.70
2018-12-19T13:07:57.883Z,95.20
2018-12-19T13:10:26.849Z,96.30
2018-12-19T13:12:55.808Z,96.80
2018-12-19T13:15:30.303Z,95.80
2018-12-19T13:17:59.614Z,94.10
2018-12-19T13:20:28.549Z,94.30
2018-12-19T13:22:57.503Z,95.30
2018-12-19T13:25:26.460Z,96.50
2018-12-19T13:27:55.442Z,97.90
2018-12-19T13:30:24.378Z,98.30
2018-12-19T13:32:53.388Z,98.90
2018-12-19T13:35:22.314Z,99.30
2018-12-19T13:37:51.250Z,99.80
2018-12-19T13:40:20.350Z,98.10
2018-12-19T13:42:49.273Z,98.80
2018-12-19T13:45:18.259Z,99.50
2018-12-19T13:47:47.206Z,98.10
2018-12-19T13:50:16.151Z,98.80
2018-12-19T13:52:45.144Z,96.90
2018-12-19T13:55:14.280Z,97.40
2018-12-19T13:57:43.251Z,97.40
2018-12-19T14:00:12.377Z,96.60
2018-12-19T14:02:41.422Z,96.90
2018-12-19T14:05:10.426Z,98.40
2018-12-19T14:07:39.373Z,98.40
2018-12-19T14:10:08.471Z,97.30
2018-12-19T14:12:37.476Z,97.10
2018-12-19T14:15:08.175Z,98.20
2018-12-19T14:17:37.144Z,98.00
2018-12-19T14:20:07.836Z,98.40
2018-12-19T14:22:36.821Z,97.20
2018-12-19T14:25:06.188Z,97.50
2018-12-19T14:27:35.146Z,97.80
2018-12-19T14:30:06.926Z,98.30
2018-12-19T14:32:35.893Z,97.80
2018-12-19T14:35:05.249Z,98.00
2018-12-19T14:37:34.229Z,98.40
2018-12-19T14:40:03.505Z,98.80
2018-12-19T14:42:32.429Z,99.00
2018-12-19T14:45:02.410Z,98.90
2018-12-19T14:47:31.404Z,98.00
2018-12-19T14:50:00.617Z,99.10
2018-12-19T14:52:29.657Z,99.80
2018-12-19T14:54:58.705Z,99.90
2018-12-19T14:57:27.653Z,99.90
2018-12-19T14:59:56.580Z,99.90
2018-12-19T15:02:25.556Z,99.90
2018-12-19T15:04:54.485Z,99.90
2018-12-19T15:07:23.420Z,99.90
2018-12-19T15:09:52.409Z,99.90
2018-12-19T15:12:25.801Z,99.90
2018-12-19T15:14:52.315Z,99.90
2018-12-19T15:17:21.647Z,99.90
2018-12-19T15:19:50.574Z,99.90
2018-12-19T15:22:19.586Z,99.90
2018-12-19T15:24:48.553Z,99.90
2018-12-19T15:27:17.489Z,99.90
2018-12-19T15:29:46.450Z,99.90
2018-12-19T15:32:15.395Z,99.90
2018-12-19T15:34:44.410Z,99.90
2018-12-19T15:37:13.357Z,99.90
2018-12-19T15:39:42.297Z,99.90
2018-12-19T15:42:11.271Z,99.90
2018-12-19T15:44:40.301Z,99.90
2018-12-19T15:47:09.291Z,99.90
2018-12-19T15:49:38.296Z,99.90
2018-12-19T15:52:07.261Z,99.90
2018-12-19T15:54:36.205Z,99.90
2018-12-19T15:57:05.202Z,99.90
2018-12-19T15:59:34.141Z,99.90
2018-12-19T16:02:03.091Z,99.90
2018-12-19T16:04:32.024Z,99.90
2018-12-19T16:07:01.117Z,99.90
2018-12-19T16:09:30.058Z,99.90
2018-12-19T16:11:59.045Z,99.90
2018-12-19T16:14:27.993Z,99.90
2018-12-19T16:16:56.963Z,99.90
2018-12-19T16:19:26.005Z,99.90
2018-12-19T16:21:54.945Z,99.90
2018-12-19T16:24:23.912Z,99.90
2018-12-19T16:26:52.848Z,99.90
2018-12-19T16:29:21.820Z,99.90
2018-12-19T16:31:50.833Z,99.90
2018-12-19T16:34:19.784Z,99.90
2018-12-19T16:36:48.714Z,99.90
2018-12-19T16:39:17.693Z,99.90
2018-12-19T16:41:46.626Z,99.90
2018-12-19T16:44:15.585Z,99.90
2018-12-19T16:46:44.528Z,99.90
2018-12-19T16:49:13.529Z,99.90
2018-12-19T16:51:42.481Z,99.90
2018-12-19T16:54:11.472Z,99.90
2018-12-19T16:56:40.439Z,99.90
2018-12-19T16:59:09.385Z,99.90
2018-12-19T17:01:38.326Z,99.90
2018-12-19T17:04:07.314Z,99.90
2018-12-19T17:06:36.277Z,99.90
2018-12-19T17:09:07.295Z,99.90
2018-12-19T17:11:36.302Z,99.90
2018-12-19T17:14:05.312Z,99.90
2018-12-19T17:16:34.279Z,99.90
2018-12-19T17:19:03.207Z,99.90
2018-12-19T17:21:32.213Z,99.90
2018-12-19T17:24:01.160Z,99.90
2018-12-19T17:26:30.122Z,99.90
2018-12-19T17:28:59.170Z,99.90
2018-12-19T17:31:28.137Z,99.90
2018-12-19T17:33:57.082Z,99.90
2018-12-19T17:36:26.098Z,99.90
2018-12-19T17:38:55.097Z,99.90
2018-12-19T17:41:24.134Z,99.90
2018-12-19T17:43:53.069Z,99.90
2018-12-19T17:46:21.992Z,99.90
2018-12-19T17:48:50.945Z,99.90
2018-12-19T17:51:19.919Z,99.90
2018-12-19T17:53:48.917Z,99.90
2018-12-19T17:56:17.858Z,99.90
2018-12-19T17:58:46.863Z,99.90
2018-12-19T18:01:15.914Z,99.90
2018-12-19T18:03:44.858Z,99.90
2018-12-19T18:06:13.808Z,99.90
2018-12-19T18:08:42.780Z,99.90
2018-12-19T18:11:11.713Z,99.90
2018-12-19T18:13:41.382Z,99.90
2018-12-19T18:16:10.328Z,99.90
2018-12-19T18:18:39.313Z,99.90
2018-12-19T18:21:08.265Z,99.90
2018-12-19T18:23:37.251Z,99.90
2018-12-19T18:26:06.715Z,99.90
2018-12-19T18:28:35.670Z,99.90
2018-12-19T18:31:04.633Z,99.90
2018-12-19T18:33:33.565Z,99.90
2018-12-19T18:36:02.586Z,99.90
2018-12-19T18:38:31.529Z,99.90
2018-12-19T18:41:00.489Z,99.90
2018-12-19T18:43:30.479Z,99.90
2018-12-19T18:45:59.515Z,99.90
2018-12-19T18:48:28.492Z,99.90
2018-12-19T18:50:57.521Z,99.90
2018-12-19T18:53:26.437Z,99.90
2018-12-19T18:55:55.394Z,99.90
2018-12-19T18:58:24.368Z,99.90
2018-12-19T19:00:53.308Z,99.90
2018-12-19T19:03:22.272Z,99.90
2018-12-19T19:05:51.279Z,99.90
2018-12-19T19:08:20.274Z,99.90
2018-12-19T19:10:49.249Z,99.90
2018-12-19T19:13:19.781Z,99.90
2018-12-19T19:15:49.002Z,99.90
2018-12-19T19:18:17.950Z,99.90
2018-12-19T19:20:46.929Z,99.90
2018-12-19T19:23:15.900Z,99.90
2018-12-19T19:25:44.848Z,99.90
2018-12-19T19:28:13.884Z,99.90
2018-12-19T19:30:42.814Z,99.90
2018-12-19T19:33:11.877Z,99.90
2018-12-19T19:35:40.896Z,99.90
2018-12-19T19:38:09.860Z,99.90
2018-12-19T19:40:38.806Z,99.90
2018-12-19T19:43:07.815Z,99.90
2018-12-19T19:45:36.772Z,99.90
2018-12-19T19:48:05.762Z,99.90
2018-12-19T19:50:34.731Z,99.90
2018-12-19T19:53:03.678Z,99.90
2018-12-19T19:55:32.654Z,99.90
2018-12-19T19:58:01.631Z,99.90
2018-12-19T20:00:30.902Z,99.90
2018-12-19T20:02:59.869Z,99.90
2018-12-19T20:05:28.880Z,99.90
2018-12-19T20:07:57.841Z,99.90
2018-12-19T20:10:26.814Z,99.90
2018-12-19T20:12:56.753Z,99.90
2018-12-19T20:15:25.732Z,99.90
2018-12-19T20:17:54.720Z,99.90
2018-12-19T20:20:23.664Z,99.90
2018-12-19T20:22:52.615Z,99.90
2018-12-19T20:25:21.602Z,99.90
2018-12-19T20:27:50.561Z,99.90
2018-12-19T20:30:19.512Z,99.90
2018-12-19T20:32:48.451Z,99.90
2018-12-19T20:35:17.462Z,99.90
2018-12-19T20:37:46.392Z,99.90
2018-12-19T20:40:15.342Z,99.90
2018-12-19T20:42:44.290Z,99.90
2018-12-19T20:45:13.444Z,99.90
2018-12-19T20:47:42.613Z,99.90
2018-12-19T20:50:11.606Z,99.90
2018-12-19T20:52:40.559Z,99.90
2018-12-19T20:55:09.545Z,99.90
2018-12-19T20:57:38.675Z,99.90
2018-12-19T21:00:08.157Z,99.90
2018-12-19T21:02:37.131Z,99.90
2018-12-19T21:05:06.177Z,99.90
2018-12-19T21:07:35.190Z,99.90
2018-12-19T21:10:05.909Z,99.90
2018-12-19T21:12:34.877Z,99.90
2018-12-19T21:15:05.397Z,99.90
2018-12-19T21:20:36.114Z,99.90
2018-12-19T21:23:05.073Z,99.90
2018-12-19T21:25:34.035Z,99.90
2018-12-19T21:28:03.028Z,99.90
2018-12-19T21:30:32.003Z,99.90
2018-12-19T21:33:01.203Z,99.90
2018-12-19T21:35:30.168Z,99.90
2018-12-19T21:37:59.148Z,99.90
2018-12-19T21:40:28.152Z,99.90
2018-12-19T21:42:57.451Z,99.90
2018-12-19T21:45:26.438Z,99.90
2018-12-19T21:47:55.568Z,99.90
2018-12-19T21:50:25.042Z,99.90
2018-12-19T21:52:54.161Z,99.90
2018-12-19T21:55:23.149Z,99.90
2018-12-19T21:57:52.293Z,99.90
2018-12-19T22:03:01.932Z,99.90
2018-12-19T22:05:30.983Z,99.90
2018-12-19T22:08:00.006Z,99.90
2018-12-19T22:10:29.604Z,99.90
2018-12-19T22:12:58.588Z,99.90
2018-12-19T22:15:27.621Z,99.90
2018-12-19T22:18:02.007Z,99.90
2018-12-19T22:20:31.014Z,99.90
2018-12-19T22:23:00.358Z,99.90
2018-12-19T22:25:29.380Z,99.90
2018-12-19T22:27:58.415Z,99.90
2018-12-19T22:30:27.467Z,99.90
2018-12-19T22:32:56.567Z,99.90
2018-12-19T22:35:25.561Z,99.90
2018-12-19T22:37:54.504Z,99.90
2018-12-19T22:40:23.539Z,99.90
2018-12-19T22:42:52.515Z,99.90
2018-12-19T22:45:21.491Z,99.90
2018-12-19T22:47:50.486Z,99.90
2018-12-19T22:50:19.600Z,99.90
2018-12-19T22:52:48.626Z,99.90
2018-12-19T22:55:17.693Z,99.90
2018-12-19T22:57:46.726Z,99.90
2018-12-19T23:00:16.088Z,99.90
2018-12-19T23:02:50.729Z,99.90
2018-12-19T23:08:02.699Z,99.90
2018-12-19T23:10:31.749Z,99.90
2018-12-19T23:13:00.727Z,99.90
2018-12-19T23:15:29.746Z,99.90
2018-12-19T23:18:00.697Z,99.90
2018-12-19T23:20:29.766Z,99.90
2018-12-19T23:22:58.761Z,99.90
2018-12-19T23:25:27.721Z,99.90
2018-12-19T23:27:56.703Z,99.90
2018-12-19T23:30:25.731Z,99.90
2018-12-19T23:32:54.802Z,99.90
2018-12-19T23:35:23.851Z,99.90
2018-12-19T23:37:53.033Z,99.90
2018-12-19T23:40:24.011Z,99.90
2018-12-19T23:42:53.103Z,99.90
2018-12-19T23:45:22.133Z,99.90
2018-12-19T23:47:51.177Z,99.90
2018-12-19T23:50:20.187Z,99.90
2018-12-19T23:52:49.187Z,99.90
2018-12-19T23:55:18.187Z,99.90
2018-12-19T23:57:47.271Z,99.90
